LFRU/MXN METAR and TAF weather

Enter ICAO airport designator
Station Type Date Time Source
LFRU METAR 2018/12/11 18:00 UTC NOAA

LFRU 111800Z AUTO 18007KT 140V230 CAVOK 09/06 Q1019


Station Type Date Time Source
LFRU Decoded METAR 2018/12/11 18:00 UTC NOAA

Morlaix / Ploujean, France (LFRU) 48-36N 003-49W
Dec 11, 2018 - 01:00 PM EST / 2018.12.11 1800 UTC
Wind: from the S (180 degrees) at 8 MPH (7 KT) (direction variable):0
Visibility: greater than 7 mile(s):0
Temperature: 48 F (9 C)
Dew Point: 42 F (6 C)
Relative Humidity: 81%
Pressure (altimeter): 30.09 in. Hg (1019 hPa)
ob: LFRU 111800Z AUTO 18007KT 140V230 CAVOK 09/06 Q1019
cycle: 18

Station Type Date Time Source
LFRU TAF UTC NOAA

Error!


Example: see airport list